TUI3FB LEPA-EDDV
Flight info
| Callsign | TUI3FB |
|---|---|
| Flight time | 2h 11m |
| Altitude | 38000 |
| Route | MEROS9B MEROS DCT LAPIT DCT CHELY DCT LUMAS DCT MAXIR DCT LUSOL DCT BODRU DCT OKTET DCT IRMAR DCT KINES DCT VANAS DCT MOBLO DCT UBIMA DCT GILIR DCT PENDU DCT UZCUX DCT SOSAD DCT OBOKA DCT HMM M170 ZEPHE T463 NIE NIE1L |
| Aircraft | B738/M-SDE2E3FGHIRWXY/LB1 |
Departure
| Time | 2026-05-01 09:22 |
|---|---|
| Airport | Palma de Mallorca Airport (LEPA) |
Arrival
| Time | 2026-05-01 11:33 |
|---|---|
| Airport | Hannover Airport (EDDV) |
| Time | Latitude | Longitude | Altitude | Speed | Heading |
|---|---|---|---|---|---|
| 2026-05-01 09:02 | 39.54538 | 2.73277 | 37 ft | 0 kts | 345° |
| 2026-05-01 09:13 | 39.54536 | 2.73277 | 37 ft | 2 kts | 345° |
| 2026-05-01 09:13 | 39.54517 | 2.73284 | 34 ft | 3 kts | 346° |
| 2026-05-01 09:14 | 39.54491 | 2.73286 | 35 ft | 4 kts | 18° |
| 2026-05-01 09:14 | 39.54476 | 2.73277 | 37 ft | 4 kts | 43° |
| 2026-05-01 09:14 | 39.54462 | 2.73255 | 37 ft | 1 kts | 58° |
| 2026-05-01 09:17 | 39.54484 | 2.73301 | 34 ft | 9 kts | 58° |
| 2026-05-01 09:18 | 39.54522 | 2.73380 | 37 ft | 12 kts | 58° |
| 2026-05-01 09:18 | 39.54618 | 2.73584 | 37 ft | 13 kts | 79° |
| 2026-05-01 09:19 | 39.54509 | 2.73537 | 37 ft | 12 kts | 239° |
| 2026-05-01 09:19 | 39.54463 | 2.73438 | 37 ft | 14 kts | 239° |
| 2026-05-01 09:19 | 39.54409 | 2.73322 | 36 ft | 16 kts | 238° |
| 2026-05-01 09:20 | 39.54294 | 2.73081 | 37 ft | 15 kts | 238° |
| 2026-05-01 09:20 | 39.54217 | 2.73095 | 37 ft | 7 kts | 108° |
| 2026-05-01 09:21 | 39.54206 | 2.73263 | 37 ft | 14 kts | 108° |
| 2026-05-01 09:21 | 39.54217 | 2.73360 | 37 ft | 15 kts | 57° |
| 2026-05-01 09:21 | 39.54729 | 2.74443 | 35 ft | 122 kts | 58° |
| 2026-05-01 09:22 | 39.55832 | 2.76794 | 498 ft | 164 kts | 57° |
| 2026-05-01 09:22 | 39.57062 | 2.79444 | 1513 ft | 181 kts | 59° |
| 2026-05-01 09:23 | 39.57740 | 2.80936 | 1864 ft | 198 kts | 60° |
| 2026-05-01 09:23 | 39.59172 | 2.84071 | 2838 ft | 208 kts | 59° |
| 2026-05-01 09:24 | 39.60660 | 2.87311 | 3978 ft | 208 kts | 60° |
| 2026-05-01 09:24 | 39.61413 | 2.88950 | 4429 ft | 214 kts | 61° |
| 2026-05-01 09:24 | 39.62956 | 2.92390 | 5163 ft | 233 kts | 62° |
| 2026-05-01 09:25 | 39.64667 | 2.96267 | 5775 ft | 264 kts | 62° |
| 2026-05-01 09:25 | 39.66518 | 3.00418 | 7061 ft | 269 kts | 62° |
| 2026-05-01 09:26 | 39.67472 | 3.02541 | 7606 ft | 276 kts | 61° |
| 2026-05-01 09:26 | 39.69443 | 3.06920 | 8746 ft | 285 kts | 62° |
| 2026-05-01 09:26 | 39.70453 | 3.09165 | 9314 ft | 291 kts | 62° |
| 2026-05-01 09:27 | 39.72492 | 3.13846 | 10403 ft | 303 kts | 62° |
| 2026-05-01 09:27 | 39.73529 | 3.16319 | 10567 ft | 322 kts | 63° |
| 2026-05-01 09:27 | 39.74615 | 3.18960 | 10716 ft | 341 kts | 63° |
| 2026-05-01 09:28 | 39.75745 | 3.21753 | 10945 ft | 356 kts | 63° |
| 2026-05-01 09:28 | 39.76892 | 3.24632 | 11453 ft | 360 kts | 64° |
| 2026-05-01 09:28 | 39.78163 | 3.27449 | 12038 ft | 364 kts | 53° |
| 2026-05-01 09:28 | 39.79782 | 3.29986 | 12635 ft | 366 kts | 48° |
| 2026-05-01 09:29 | 39.83214 | 3.34964 | 13883 ft | 371 kts | 47° |
| 2026-05-01 09:29 | 39.84942 | 3.37478 | 14452 ft | 375 kts | 47° |
| 2026-05-01 09:30 | 39.88415 | 3.42609 | 15615 ft | 381 kts | 47° |
| 2026-05-01 09:30 | 39.90161 | 3.45218 | 16203 ft | 383 kts | 48° |
| 2026-05-01 09:30 | 39.93681 | 3.50512 | 17340 ft | 390 kts | 48° |
| 2026-05-01 09:31 | 39.95461 | 3.53198 | 17892 ft | 393 kts | 48° |
| 2026-05-01 09:31 | 39.97252 | 3.55905 | 18460 ft | 396 kts | 48° |
| 2026-05-01 09:31 | 40.00878 | 3.61392 | 19400 ft | 403 kts | 48° |
| 2026-05-01 09:32 | 40.02709 | 3.64166 | 19889 ft | 405 kts | 48° |
| 2026-05-01 09:32 | 40.06407 | 3.69777 | 20841 ft | 410 kts | 48° |
| 2026-05-01 09:32 | 40.08272 | 3.72610 | 21297 ft | 413 kts | 48° |
| 2026-05-01 09:33 | 40.10150 | 3.75465 | 21748 ft | 416 kts | 48° |
| 2026-05-01 09:33 | 40.12039 | 3.78341 | 22193 ft | 418 kts | 48° |
| 2026-05-01 09:33 | 40.15851 | 3.84150 | 23080 ft | 423 kts | 48° |
| 2026-05-01 09:34 | 40.17773 | 3.87084 | 23519 ft | 426 kts | 48° |
| 2026-05-01 09:34 | 40.19703 | 3.90033 | 23906 ft | 429 kts | 48° |
| 2026-05-01 09:34 | 40.23603 | 3.96000 | 24585 ft | 434 kts | 48° |
| 2026-05-01 09:35 | 40.25569 | 3.99012 | 24925 ft | 436 kts | 48° |
| 2026-05-01 09:35 | 40.29530 | 4.05091 | 25582 ft | 441 kts | 48° |
| 2026-05-01 09:35 | 40.31526 | 4.08157 | 25893 ft | 444 kts | 48° |
| 2026-05-01 09:36 | 40.33532 | 4.11244 | 26219 ft | 446 kts | 48° |
| 2026-05-01 09:36 | 40.35549 | 4.14349 | 26526 ft | 448 kts | 48° |
| 2026-05-01 09:36 | 40.37576 | 4.17474 | 26828 ft | 451 kts | 48° |
| 2026-05-01 09:36 | 40.39609 | 4.20612 | 27126 ft | 453 kts | 48° |
| 2026-05-01 09:37 | 40.41653 | 4.23769 | 27454 ft | 455 kts | 48° |
| 2026-05-01 09:37 | 40.45760 | 4.30123 | 28023 ft | 459 kts | 48° |
| 2026-05-01 09:37 | 40.47835 | 4.33319 | 28294 ft | 461 kts | 46° |
| 2026-05-01 09:38 | 40.53218 | 4.37615 | 28785 ft | 457 kts | 11° |
| 2026-05-01 09:38 | 40.56330 | 4.38411 | 29095 ft | 456 kts | 7° |
| 2026-05-01 09:38 | 40.59474 | 4.39097 | 29323 ft | 459 kts | 7° |
| 2026-05-01 09:39 | 40.65809 | 4.40478 | 29792 ft | 464 kts | 7° |
| 2026-05-01 09:39 | 40.68985 | 4.41206 | 30098 ft | 464 kts | 8° |
| 2026-05-01 09:39 | 40.72160 | 4.41958 | 30453 ft | 463 kts | 8° |
| 2026-05-01 09:40 | 40.75325 | 4.42718 | 30787 ft | 461 kts | 8° |
| 2026-05-01 09:40 | 40.81633 | 4.44221 | 31347 ft | 461 kts | 8° |
| 2026-05-01 09:40 | 40.84788 | 4.44969 | 31640 ft | 460 kts | 8° |
| 2026-05-01 09:41 | 40.87931 | 4.45720 | 31953 ft | 459 kts | 8° |
| 2026-05-01 09:41 | 40.94200 | 4.47239 | 32493 ft | 458 kts | 8° |
| 2026-05-01 09:41 | 40.97334 | 4.48007 | 32750 ft | 458 kts | 8° |
| 2026-05-01 09:42 | 41.00465 | 4.48776 | 33032 ft | 457 kts | 8° |
| 2026-05-01 09:42 | 41.03591 | 4.49542 | 33307 ft | 456 kts | 8° |
| 2026-05-01 09:42 | 41.09839 | 4.51071 | 33756 ft | 457 kts | 8° |
| 2026-05-01 09:43 | 41.16098 | 4.52598 | 34245 ft | 456 kts | 7° |
| 2026-05-01 09:43 | 41.19219 | 4.53360 | 34469 ft | 456 kts | 7° |
| 2026-05-01 09:43 | 41.22336 | 4.54122 | 34658 ft | 456 kts | 8° |
| 2026-05-01 09:44 | 41.28575 | 4.55651 | 35051 ft | 456 kts | 7° |
| 2026-05-01 09:44 | 41.31694 | 4.56416 | 35238 ft | 455 kts | 7° |
| 2026-05-01 09:44 | 41.34809 | 4.57181 | 35438 ft | 455 kts | 8° |
| 2026-05-01 09:45 | 41.37919 | 4.57946 | 35658 ft | 454 kts | 7° |
| 2026-05-01 09:45 | 41.44090 | 4.59467 | 36149 ft | 450 kts | 7° |
| 2026-05-01 09:45 | 41.47171 | 4.60226 | 36237 ft | 452 kts | 7° |
| 2026-05-01 09:46 | 41.53362 | 4.61754 | 36245 ft | 451 kts | 7° |
| 2026-05-01 09:46 | 41.59506 | 4.63276 | 36231 ft | 447 kts | 7° |
| 2026-05-01 09:47 | 41.65606 | 4.64788 | 36241 ft | 444 kts | 7° |
| 2026-05-01 09:47 | 41.71660 | 4.66360 | 36252 ft | 444 kts | 12° |
| 2026-05-01 09:48 | 41.77323 | 4.69704 | 36262 ft | 448 kts | 28° |
| 2026-05-01 09:48 | 41.82650 | 4.74051 | 36252 ft | 449 kts | 28° |
| 2026-05-01 09:49 | 41.87986 | 4.78442 | 36262 ft | 450 kts | 28° |
| 2026-05-01 09:49 | 41.93351 | 4.82806 | 36270 ft | 452 kts | 28° |
| 2026-05-01 09:50 | 41.98749 | 4.87171 | 36264 ft | 454 kts | 28° |
| 2026-05-01 09:50 | 42.04172 | 4.91556 | 36269 ft | 456 kts | 28° |
| 2026-05-01 09:51 | 42.09609 | 4.95962 | 36282 ft | 457 kts | 28° |
| 2026-05-01 09:51 | 42.15063 | 5.00386 | 36263 ft | 458 kts | 28° |
| 2026-05-01 09:52 | 42.20507 | 5.04818 | 36264 ft | 457 kts | 28° |
| 2026-05-01 09:52 | 42.25933 | 5.09248 | 36267 ft | 455 kts | 28° |
| 2026-05-01 09:53 | 42.31335 | 5.13665 | 36273 ft | 453 kts | 28° |
| 2026-05-01 09:53 | 42.36715 | 5.18071 | 36272 ft | 451 kts | 28° |
| 2026-05-01 09:54 | 42.41165 | 5.21722 | 36276 ft | 450 kts | 28° |
| 2026-05-01 09:54 | 42.46503 | 5.26110 | 36278 ft | 448 kts | 28° |
| 2026-05-01 09:55 | 42.51820 | 5.30489 | 36286 ft | 447 kts | 28° |
| 2026-05-01 09:55 | 42.57134 | 5.34874 | 36290 ft | 447 kts | 28° |
| 2026-05-01 09:56 | 42.62437 | 5.39260 | 36286 ft | 447 kts | 28° |
| 2026-05-01 09:56 | 42.67739 | 5.43653 | 36289 ft | 447 kts | 28° |
| 2026-05-01 09:57 | 42.73044 | 5.48058 | 36290 ft | 447 kts | 28° |
| 2026-05-01 09:57 | 42.78353 | 5.52474 | 36291 ft | 447 kts | 28° |
| 2026-05-01 09:58 | 42.83664 | 5.56902 | 36292 ft | 448 kts | 28° |
| 2026-05-01 09:58 | 42.88987 | 5.61349 | 36304 ft | 449 kts | 28° |
| 2026-05-01 09:59 | 42.94312 | 5.65808 | 36296 ft | 450 kts | 28° |
| 2026-05-01 09:59 | 42.99644 | 5.70280 | 36294 ft | 450 kts | 28° |
| 2026-05-01 10:00 | 43.04977 | 5.74762 | 36301 ft | 450 kts | 28° |
| 2026-05-01 10:00 | 43.10300 | 5.79245 | 36289 ft | 449 kts | 28° |
| 2026-05-01 10:01 | 43.15610 | 5.83730 | 36292 ft | 448 kts | 28° |
| 2026-05-01 10:01 | 43.20904 | 5.88209 | 36289 ft | 447 kts | 28° |
| 2026-05-01 10:02 | 43.26152 | 5.92657 | 36289 ft | 446 kts | 28° |
| 2026-05-01 10:02 | 43.31449 | 5.97157 | 36292 ft | 444 kts | 28° |
| 2026-05-01 10:03 | 43.36707 | 6.01598 | 36301 ft | 442 kts | 25° |
| 2026-05-01 10:03 | 43.42372 | 6.04382 | 36304 ft | 433 kts | 7° |
| 2026-05-01 10:04 | 43.48324 | 6.05089 | 36315 ft | 429 kts | 0° |
| 2026-05-01 10:04 | 43.54289 | 6.05573 | 36307 ft | 430 kts | 1° |
| 2026-05-01 10:05 | 43.60303 | 6.06134 | 36297 ft | 431 kts | 1° |
| 2026-05-01 10:05 | 43.66257 | 6.06724 | 36300 ft | 432 kts | 1° |
| 2026-05-01 10:06 | 43.72262 | 6.07320 | 36301 ft | 433 kts | 1° |
| 2026-05-01 10:06 | 43.78221 | 6.08688 | 36305 ft | 438 kts | 15° |
| 2026-05-01 10:07 | 43.83812 | 6.12182 | 36307 ft | 442 kts | 24° |
| 2026-05-01 10:07 | 43.89303 | 6.16041 | 36299 ft | 442 kts | 24° |
| 2026-05-01 10:08 | 43.97546 | 6.21743 | 36299 ft | 440 kts | 23° |
| 2026-05-01 10:09 | 44.03029 | 6.25500 | 36298 ft | 439 kts | 23° |
| 2026-05-01 10:09 | 44.08502 | 6.29256 | 36302 ft | 437 kts | 23° |
| 2026-05-01 10:10 | 44.13949 | 6.33004 | 36296 ft | 436 kts | 23° |
| 2026-05-01 10:10 | 44.22098 | 6.38625 | 36297 ft | 435 kts | 23° |
| 2026-05-01 10:11 | 44.27518 | 6.42381 | 36303 ft | 435 kts | 24° |
| 2026-05-01 10:11 | 44.32947 | 6.46151 | 36300 ft | 436 kts | 24° |
| 2026-05-01 10:12 | 44.38388 | 6.49937 | 36301 ft | 437 kts | 24° |
| 2026-05-01 10:13 | 44.46575 | 6.55651 | 36282 ft | 439 kts | 25° |
| 2026-05-01 10:13 | 44.52043 | 6.59465 | 36296 ft | 440 kts | 25° |
| 2026-05-01 10:14 | 44.60278 | 6.65191 | 36288 ft | 441 kts | 25° |
| 2026-05-01 10:14 | 44.65773 | 6.69027 | 36288 ft | 442 kts | 25° |
| 2026-05-01 10:15 | 44.71279 | 6.72879 | 36309 ft | 442 kts | 25° |
| 2026-05-01 10:15 | 44.76802 | 6.76709 | 36294 ft | 442 kts | 21° |
| 2026-05-01 10:16 | 44.82712 | 6.78758 | 36307 ft | 438 kts | 3° |
| 2026-05-01 10:17 | 44.91808 | 6.78333 | 36299 ft | 436 kts | 355° |
| 2026-05-01 10:17 | 45.00891 | 6.77637 | 36309 ft | 436 kts | 356° |
| 2026-05-01 10:18 | 45.09983 | 6.77031 | 36312 ft | 436 kts | 356° |
| 2026-05-01 10:19 | 45.16054 | 6.76632 | 36301 ft | 437 kts | 356° |
| 2026-05-01 10:19 | 45.22138 | 6.76229 | 36294 ft | 438 kts | 356° |
| 2026-05-01 10:20 | 45.31285 | 6.75621 | 36296 ft | 439 kts | 356° |
| 2026-05-01 10:20 | 45.37390 | 6.75224 | 36298 ft | 440 kts | 356° |
| 2026-05-01 10:21 | 45.46534 | 6.74646 | 36299 ft | 441 kts | 356° |
| 2026-05-01 10:22 | 45.55720 | 6.74025 | 36297 ft | 441 kts | 356° |
| 2026-05-01 10:23 | 45.64941 | 6.73392 | 36285 ft | 439 kts | 357° |
| 2026-05-01 10:23 | 45.74053 | 6.72774 | 36285 ft | 439 kts | 357° |
| 2026-05-01 10:24 | 45.86315 | 6.71933 | 36567 ft | 443 kts | 357° |
| 2026-05-01 10:25 | 45.92435 | 6.71507 | 37053 ft | 440 kts | 356° |
| 2026-05-01 10:25 | 45.98589 | 6.71078 | 37137 ft | 445 kts | 356° |
| 2026-05-01 10:26 | 46.01688 | 6.70861 | 37252 ft | 446 kts | 357° |
| 2026-05-01 10:26 | 46.04782 | 6.70645 | 37442 ft | 445 kts | 356° |
| 2026-05-01 10:26 | 46.10943 | 6.70201 | 37880 ft | 441 kts | 354° |
| 2026-05-01 10:27 | 46.16890 | 6.68225 | 38209 ft | 438 kts | 340° |
| 2026-05-01 10:28 | 46.25555 | 6.63874 | 38298 ft | 442 kts | 341° |
| 2026-05-01 10:28 | 46.34281 | 6.59560 | 38297 ft | 442 kts | 341° |
| 2026-05-01 10:29 | 46.43010 | 6.55291 | 38304 ft | 441 kts | 341° |
| 2026-05-01 10:30 | 46.54628 | 6.49589 | 38312 ft | 440 kts | 341° |
| 2026-05-01 10:31 | 46.66229 | 6.43868 | 38310 ft | 440 kts | 341° |
| 2026-05-01 10:32 | 46.74943 | 6.39552 | 38306 ft | 442 kts | 341° |
| 2026-05-01 10:33 | 46.86376 | 6.32795 | 38289 ft | 445 kts | 337° |
| 2026-05-01 10:34 | 46.94970 | 6.27549 | 38287 ft | 448 kts | 337° |
| 2026-05-01 10:34 | 47.00744 | 6.24065 | 38290 ft | 449 kts | 337° |
| 2026-05-01 10:35 | 47.09437 | 6.18807 | 38273 ft | 452 kts | 338° |
| 2026-05-01 10:35 | 47.15255 | 6.15280 | 38289 ft | 453 kts | 337° |
| 2026-05-01 10:36 | 47.24007 | 6.09956 | 38285 ft | 454 kts | 337° |
| 2026-05-01 10:37 | 47.28862 | 6.06991 | 38275 ft | 455 kts | 337° |
| 2026-05-01 10:37 | 47.34918 | 6.04531 | 38292 ft | 453 kts | 358° |
| 2026-05-01 10:37 | 47.38062 | 6.04723 | 38261 ft | 452 kts | 10° |
| 2026-05-01 10:38 | 47.44086 | 6.07223 | 38270 ft | 450 kts | 18° |
| 2026-05-01 10:38 | 47.50053 | 6.10031 | 38277 ft | 450 kts | 18° |
| 2026-05-01 10:39 | 47.56019 | 6.12796 | 38285 ft | 449 kts | 18° |
| 2026-05-01 10:39 | 47.61986 | 6.15517 | 38287 ft | 448 kts | 18° |
| 2026-05-01 10:40 | 47.67942 | 6.18221 | 38292 ft | 447 kts | 18° |
| 2026-05-01 10:40 | 47.73889 | 6.20923 | 38296 ft | 446 kts | 18° |
| 2026-05-01 10:41 | 47.79823 | 6.23633 | 38294 ft | 446 kts | 18° |
| 2026-05-01 10:42 | 47.88705 | 6.27700 | 38291 ft | 445 kts | 18° |
| 2026-05-01 10:42 | 47.94620 | 6.30416 | 38295 ft | 445 kts | 18° |
| 2026-05-01 10:43 | 48.00530 | 6.33136 | 38300 ft | 445 kts | 18° |
| 2026-05-01 10:43 | 48.06447 | 6.35866 | 38301 ft | 445 kts | 18° |
| 2026-05-01 10:44 | 48.12359 | 6.38599 | 38295 ft | 445 kts | 18° |
| 2026-05-01 10:44 | 48.18277 | 6.41343 | 38299 ft | 445 kts | 18° |
| 2026-05-01 10:45 | 48.24202 | 6.44095 | 38307 ft | 446 kts | 17° |
| 2026-05-01 10:45 | 48.30125 | 6.46853 | 38303 ft | 446 kts | 17° |
| 2026-05-01 10:46 | 48.36053 | 6.49623 | 38292 ft | 446 kts | 17° |
| 2026-05-01 10:46 | 48.41978 | 6.52398 | 38299 ft | 446 kts | 18° |
| 2026-05-01 10:47 | 48.47906 | 6.55180 | 38302 ft | 446 kts | 18° |
| 2026-05-01 10:47 | 48.53782 | 6.57944 | 38303 ft | 445 kts | 18° |
| 2026-05-01 10:48 | 48.59699 | 6.60734 | 38305 ft | 445 kts | 18° |
| 2026-05-01 10:48 | 48.65608 | 6.63527 | 38306 ft | 445 kts | 18° |
| 2026-05-01 10:49 | 48.71510 | 6.66324 | 38316 ft | 444 kts | 18° |
| 2026-05-01 10:49 | 48.77414 | 6.69129 | 38314 ft | 444 kts | 18° |
| 2026-05-01 10:50 | 48.83311 | 6.71937 | 38312 ft | 444 kts | 18° |
| 2026-05-01 10:50 | 48.89203 | 6.74750 | 38318 ft | 444 kts | 18° |
| 2026-05-01 10:51 | 48.95103 | 6.77574 | 38308 ft | 444 kts | 17° |
| 2026-05-01 10:51 | 49.00999 | 6.80403 | 38313 ft | 444 kts | 17° |
| 2026-05-01 10:52 | 49.06893 | 6.83238 | 38309 ft | 444 kts | 17° |
| 2026-05-01 10:52 | 49.12782 | 6.86079 | 38323 ft | 444 kts | 17° |
| 2026-05-01 10:53 | 49.18673 | 6.88926 | 38315 ft | 444 kts | 17° |
| 2026-05-01 10:53 | 49.24556 | 6.91782 | 38307 ft | 444 kts | 18° |
| 2026-05-01 10:54 | 49.30448 | 6.94588 | 38304 ft | 443 kts | 13° |
| 2026-05-01 10:54 | 49.36501 | 6.96345 | 38311 ft | 443 kts | 9° |
| 2026-05-01 10:55 | 49.42582 | 6.97822 | 38310 ft | 442 kts | 9° |
| 2026-05-01 10:55 | 49.48659 | 6.99353 | 38310 ft | 442 kts | 9° |
| 2026-05-01 10:56 | 49.54727 | 7.00949 | 38318 ft | 442 kts | 9° |
| 2026-05-01 10:56 | 49.60791 | 7.02572 | 38322 ft | 442 kts | 9° |
| 2026-05-01 10:57 | 49.66856 | 7.04203 | 38329 ft | 442 kts | 9° |
| 2026-05-01 10:57 | 49.72925 | 7.05837 | 38327 ft | 443 kts | 9° |
| 2026-05-01 10:58 | 49.78993 | 7.07474 | 38327 ft | 443 kts | 9° |
| 2026-05-01 10:58 | 49.85064 | 7.09116 | 38335 ft | 443 kts | 9° |
| 2026-05-01 10:59 | 49.91140 | 7.10763 | 38332 ft | 443 kts | 9° |
| 2026-05-01 10:59 | 49.97219 | 7.12416 | 38350 ft | 444 kts | 9° |
| 2026-05-01 11:00 | 50.03303 | 7.14071 | 38346 ft | 444 kts | 9° |
| 2026-05-01 11:00 | 50.09388 | 7.15733 | 38349 ft | 444 kts | 9° |
| 2026-05-01 11:01 | 50.15475 | 7.17402 | 38346 ft | 444 kts | 9° |
| 2026-05-01 11:01 | 50.21562 | 7.19074 | 38349 ft | 444 kts | 9° |
| 2026-05-01 11:02 | 50.27647 | 7.20749 | 38344 ft | 444 kts | 9° |
| 2026-05-01 11:02 | 50.33726 | 7.22428 | 38346 ft | 443 kts | 9° |
| 2026-05-01 11:03 | 50.39794 | 7.24108 | 38348 ft | 443 kts | 9° |
| 2026-05-01 11:03 | 50.45855 | 7.25790 | 38354 ft | 442 kts | 9° |
| 2026-05-01 11:04 | 50.51906 | 7.27473 | 38350 ft | 441 kts | 9° |
| 2026-05-01 11:04 | 50.57949 | 7.29159 | 38362 ft | 441 kts | 9° |
| 2026-05-01 11:05 | 50.63944 | 7.30836 | 38346 ft | 440 kts | 9° |
| 2026-05-01 11:05 | 50.69974 | 7.32527 | 38357 ft | 440 kts | 9° |
| 2026-05-01 11:06 | 50.75994 | 7.34237 | 38350 ft | 439 kts | 10° |
| 2026-05-01 11:06 | 50.81986 | 7.36162 | 38351 ft | 439 kts | 11° |
| 2026-05-01 11:07 | 50.90960 | 7.39147 | 38353 ft | 439 kts | 11° |
| 2026-05-01 11:07 | 50.96949 | 7.41120 | 38355 ft | 440 kts | 11° |
| 2026-05-01 11:08 | 51.02945 | 7.43090 | 38351 ft | 440 kts | 11° |
| 2026-05-01 11:09 | 51.11882 | 7.46032 | 37930 ft | 431 kts | 11° |
| 2026-05-01 11:09 | 51.14820 | 7.47000 | 37322 ft | 432 kts | 11° |
| 2026-05-01 11:09 | 51.17773 | 7.47974 | 36611 ft | 435 kts | 11° |
| 2026-05-01 11:10 | 51.23742 | 7.49951 | 35334 ft | 439 kts | 11° |
| 2026-05-01 11:10 | 51.26740 | 7.50946 | 34715 ft | 441 kts | 11° |
| 2026-05-01 11:10 | 51.29744 | 7.51945 | 34186 ft | 440 kts | 11° |
| 2026-05-01 11:10 | 51.32739 | 7.52943 | 33578 ft | 439 kts | 12° |
| 2026-05-01 11:11 | 51.35730 | 7.53941 | 32980 ft | 438 kts | 12° |
| 2026-05-01 11:11 | 51.38703 | 7.54932 | 32470 ft | 435 kts | 12° |
| 2026-05-01 11:11 | 51.41678 | 7.55926 | 31729 ft | 438 kts | 12° |
| 2026-05-01 11:11 | 51.44668 | 7.56927 | 31056 ft | 439 kts | 12° |
| 2026-05-01 11:12 | 51.47664 | 7.57932 | 30356 ft | 441 kts | 12° |
| 2026-05-01 11:12 | 51.50665 | 7.58940 | 29573 ft | 441 kts | 12° |
| 2026-05-01 11:12 | 51.53671 | 7.59951 | 28671 ft | 443 kts | 12° |
| 2026-05-01 11:12 | 51.56704 | 7.60972 | 27855 ft | 445 kts | 12° |
| 2026-05-01 11:13 | 51.59716 | 7.61986 | 27300 ft | 440 kts | 12° |
| 2026-05-01 11:13 | 51.62703 | 7.62994 | 26734 ft | 439 kts | 12° |
| 2026-05-01 11:13 | 51.65729 | 7.64017 | 26201 ft | 450 kts | 12° |
| 2026-05-01 11:13 | 51.68818 | 7.65062 | 25670 ft | 456 kts | 13° |
| 2026-05-01 11:14 | 51.71905 | 7.66108 | 25468 ft | 453 kts | 13° |
| 2026-05-01 11:14 | 51.75014 | 7.67162 | 25385 ft | 458 kts | 12° |
| 2026-05-01 11:14 | 51.78113 | 7.68280 | 25346 ft | 454 kts | 17° |
| 2026-05-01 11:14 | 51.80972 | 7.70323 | 25346 ft | 449 kts | 33° |
| 2026-05-01 11:15 | 51.83401 | 7.73487 | 25358 ft | 450 kts | 45° |
| 2026-05-01 11:15 | 51.85386 | 7.77381 | 25350 ft | 449 kts | 56° |
| 2026-05-01 11:15 | 51.87147 | 7.81563 | 25367 ft | 451 kts | 56° |
| 2026-05-01 11:15 | 51.88922 | 7.85745 | 25335 ft | 448 kts | 56° |
| 2026-05-01 11:16 | 51.90672 | 7.89840 | 24907 ft | 439 kts | 56° |
| 2026-05-01 11:16 | 51.92413 | 7.93887 | 24263 ft | 438 kts | 56° |
| 2026-05-01 11:16 | 51.94159 | 7.97932 | 23518 ft | 438 kts | 56° |
| 2026-05-01 11:16 | 51.95901 | 8.01958 | 22825 ft | 435 kts | 56° |
| 2026-05-01 11:17 | 51.97634 | 8.05967 | 22148 ft | 433 kts | 56° |
| 2026-05-01 11:17 | 51.99355 | 8.09954 | 21473 ft | 430 kts | 56° |
| 2026-05-01 11:17 | 52.01066 | 8.13922 | 20817 ft | 427 kts | 57° |
| 2026-05-01 11:17 | 52.02730 | 8.17789 | 20176 ft | 419 kts | 57° |
| 2026-05-01 11:18 | 52.04383 | 8.21636 | 19544 ft | 412 kts | 57° |
| 2026-05-01 11:18 | 52.06008 | 8.25423 | 18928 ft | 405 kts | 57° |
| 2026-05-01 11:18 | 52.07605 | 8.29150 | 18273 ft | 399 kts | 57° |
| 2026-05-01 11:18 | 52.09177 | 8.32824 | 17592 ft | 393 kts | 57° |
| 2026-05-01 11:19 | 52.10725 | 8.36451 | 16924 ft | 388 kts | 57° |
| 2026-05-01 11:19 | 52.12255 | 8.40038 | 16271 ft | 383 kts | 57° |
| 2026-05-01 11:19 | 52.13764 | 8.43582 | 15633 ft | 379 kts | 57° |
| 2026-05-01 11:19 | 52.15248 | 8.47071 | 14996 ft | 371 kts | 58° |
| 2026-05-01 11:20 | 52.16701 | 8.50492 | 14376 ft | 364 kts | 58° |
| 2026-05-01 11:20 | 52.18122 | 8.53841 | 13887 ft | 354 kts | 58° |
| 2026-05-01 11:20 | 52.19500 | 8.57092 | 13358 ft | 345 kts | 58° |
| 2026-05-01 11:20 | 52.20848 | 8.60277 | 12841 ft | 337 kts | 58° |
| 2026-05-01 11:21 | 52.22164 | 8.63391 | 12370 ft | 330 kts | 59° |
| 2026-05-01 11:21 | 52.23436 | 8.66402 | 12131 ft | 316 kts | 59° |
| 2026-05-01 11:21 | 52.24269 | 8.68374 | 11955 ft | 308 kts | 59° |
| 2026-05-01 11:21 | 52.25842 | 8.72097 | 11592 ft | 295 kts | 59° |
| 2026-05-01 11:22 | 52.26634 | 8.73945 | 11341 ft | 293 kts | 59° |
| 2026-05-01 11:22 | 52.27799 | 8.76643 | 10971 ft | 289 kts | 59° |
| 2026-05-01 11:22 | 52.28955 | 8.79307 | 10619 ft | 287 kts | 58° |
| 2026-05-01 11:22 | 52.30110 | 8.81959 | 10436 ft | 288 kts | 58° |
| 2026-05-01 11:23 | 52.31264 | 8.84613 | 10418 ft | 292 kts | 58° |
| 2026-05-01 11:23 | 52.32434 | 8.87297 | 10388 ft | 285 kts | 58° |
| 2026-05-01 11:23 | 52.33558 | 8.89860 | 10378 ft | 269 kts | 58° |
| 2026-05-01 11:23 | 52.34626 | 8.92275 | 10273 ft | 255 kts | 58° |
| 2026-05-01 11:24 | 52.35643 | 8.94559 | 10155 ft | 243 kts | 58° |
| 2026-05-01 11:24 | 52.36630 | 8.96767 | 9839 ft | 238 kts | 58° |
| 2026-05-01 11:24 | 52.38584 | 9.01179 | 8986 ft | 242 kts | 58° |
| 2026-05-01 11:25 | 52.39575 | 9.03455 | 8569 ft | 242 kts | 60° |
| 2026-05-01 11:25 | 52.41307 | 9.08109 | 7856 ft | 238 kts | 63° |
| 2026-05-01 11:25 | 52.42139 | 9.10417 | 7509 ft | 233 kts | 63° |
| 2026-05-01 11:26 | 52.42956 | 9.12697 | 7131 ft | 231 kts | 63° |
| 2026-05-01 11:26 | 52.44568 | 9.17235 | 6220 ft | 229 kts | 64° |
| 2026-05-01 11:26 | 52.45369 | 9.19491 | 5790 ft | 228 kts | 64° |
| 2026-05-01 11:27 | 52.46159 | 9.21712 | 5431 ft | 222 kts | 64° |
| 2026-05-01 11:27 | 52.46618 | 9.23947 | 5363 ft | 198 kts | 90° |
| 2026-05-01 11:27 | 52.46644 | 9.26169 | 5110 ft | 192 kts | 93° |
| 2026-05-01 11:27 | 52.46637 | 9.28334 | 4851 ft | 188 kts | 95° |
| 2026-05-01 11:28 | 52.46596 | 9.30445 | 4611 ft | 184 kts | 95° |
| 2026-05-01 11:28 | 52.46540 | 9.32527 | 4363 ft | 182 kts | 96° |
| 2026-05-01 11:28 | 52.46476 | 9.34594 | 4126 ft | 182 kts | 96° |
| 2026-05-01 11:29 | 52.46352 | 9.38716 | 3630 ft | 179 kts | 96° |
| 2026-05-01 11:29 | 52.46291 | 9.40722 | 3406 ft | 173 kts | 96° |
| 2026-05-01 11:29 | 52.46168 | 9.44670 | 2956 ft | 175 kts | 95° |
| 2026-05-01 11:30 | 52.46109 | 9.46649 | 2708 ft | 171 kts | 96° |
| 2026-05-01 11:30 | 52.46049 | 9.48587 | 2476 ft | 168 kts | 95° |
| 2026-05-01 11:30 | 52.45992 | 9.50477 | 2251 ft | 164 kts | 95° |
| 2026-05-01 11:30 | 52.45940 | 9.52293 | 2072 ft | 154 kts | 95° |
| 2026-05-01 11:31 | 52.45888 | 9.54056 | 1837 ft | 156 kts | 95° |
| 2026-05-01 11:31 | 52.45839 | 9.55802 | 1637 ft | 151 kts | 96° |
| 2026-05-01 11:31 | 52.45801 | 9.57528 | 1389 ft | 152 kts | 94° |
| 2026-05-01 11:31 | 52.45762 | 9.59244 | 1197 ft | 149 kts | 95° |
| 2026-05-01 11:32 | 52.45706 | 9.60942 | 1047 ft | 150 kts | 97° |
| 2026-05-01 11:32 | 52.45656 | 9.62645 | 824 ft | 149 kts | 96° |
| 2026-05-01 11:32 | 52.45592 | 9.64279 | 624 ft | 139 kts | 95° |
| 2026-05-01 11:32 | 52.45544 | 9.65873 | 402 ft | 143 kts | 92° |
| 2026-05-01 11:33 | 52.45507 | 9.67504 | 242 ft | 142 kts | 95° |
| 2026-05-01 11:33 | 52.45461 | 9.69053 | 189 ft | 117 kts | 92° |
| 2026-05-01 11:33 | 52.45433 | 9.70041 | 181 ft | 59 kts | 93° |
| 2026-05-01 11:33 | 52.45419 | 9.70502 | 182 ft | 26 kts | 92° |
| 2026-05-01 11:34 | 52.45452 | 9.70670 | 181 ft | 14 kts | 13° |
| 2026-05-01 11:34 | 52.45555 | 9.70673 | 178 ft | 15 kts | 2° |
| 2026-05-01 11:34 | 52.45644 | 9.70630 | 177 ft | 14 kts | 302° |
| 2026-05-01 11:34 | 52.45653 | 9.70475 | 177 ft | 13 kts | 272° |
| 2026-05-01 11:35 | 52.45657 | 9.70326 | 177 ft | 13 kts | 272° |
| 2026-05-01 11:35 | 52.45661 | 9.70182 | 177 ft | 13 kts | 273° |
| 2026-05-01 11:35 | 52.45665 | 9.70040 | 177 ft | 12 kts | 272° |
| 2026-05-01 11:35 | 52.45669 | 9.69903 | 177 ft | 12 kts | 272° |
| 2026-05-01 11:36 | 52.45673 | 9.69769 | 177 ft | 12 kts | 273° |
| 2026-05-01 11:36 | 52.45724 | 9.69705 | 177 ft | 6 kts | 353° |
| 2026-05-01 11:36 | 52.45743 | 9.69702 | 177 ft | 0 kts | 355° |